sensor_id;sensor_type;location;lat;lon;timestamp;pressure;altitude;pressure_sealevel;temperature;humidity
73332;BME280;61560;33.718;73.040;2022-12-18T00:01:20;95086.53;;;9.52;62.57
73332;BME280;61560;33.718;73.040;2022-12-18T00:03:48;95083.06;;;9.48;62.84
73332;BME280;61560;33.718;73.040;2022-12-18T00:06:18;95087.31;;;9.52;62.20
73332;BME280;61560;33.718;73.040;2022-12-18T00:08:46;95091.63;;;9.50;61.87
73332;BME280;61560;33.718;73.040;2022-12-18T00:11:14;95087.72;;;9.51;62.40
73332;BME280;61560;33.718;73.040;2022-12-18T00:13:42;95081.47;;;9.50;61.83
73332;BME280;61560;33.718;73.040;2022-12-18T00:16:11;95076.41;;;9.49;62.12
73332;BME280;61560;33.718;73.040;2022-12-18T00:18:39;95086.53;;;9.55;62.05
73332;BME280;61560;33.718;73.040;2022-12-18T00:21:08;95082.63;;;9.56;61.99
73332;BME280;61560;33.718;73.040;2022-12-18T00:23:36;95073.22;;;9.57;61.22
73332;BME280;61560;33.718;73.040;2022-12-18T00:26:07;95072.44;;;9.57;60.84
73332;BME280;61560;33.718;73.040;2022-12-18T00:28:35;95070.47;;;9.61;61.75
73332;BME280;61560;33.718;73.040;2022-12-18T00:31:07;95077.09;;;9.63;60.97
73332;BME280;61560;33.718;73.040;2022-12-18T00:33:35;95072.03;;;9.62;61.13
73332;BME280;61560;33.718;73.040;2022-12-18T00:36:03;95073.22;;;9.57;60.79
73332;BME280;61560;33.718;73.040;2022-12-18T00:38:32;95083.38;;;9.60;60.63
73332;BME280;61560;33.718;73.040;2022-12-18T00:40:59;95080.25;;;9.58;60.31
73332;BME280;61560;33.718;73.040;2022-12-18T00:43:27;95074.41;;;9.53;61.15
73332;BME280;61560;33.718;73.040;2022-12-18T00:45:54;95080.69;;;9.50;61.16
73332;BME280;61560;33.718;73.040;2022-12-18T00:48:22;95072.88;;;9.48;61.07
73332;BME280;61560;33.718;73.040;2022-12-18T00:50:49;95083.03;;;9.51;60.70
73332;BME280;61560;33.718;73.040;2022-12-18T00:53:17;95095.94;;;9.47;62.03
73332;BME280;61560;33.718;73.040;2022-12-18T00:55:44;95096.31;;;9.49;61.11
73332;BME280;61560;33.718;73.040;2022-12-18T00:58:12;95102.19;;;9.44;61.62
73332;BME280;61560;33.718;73.040;2022-12-18T01:00:39;95106.91;;;9.40;62.04
73332;BME280;61560;33.718;73.040;2022-12-18T01:03:13;95106.16;;;9.33;61.95
73332;BME280;61560;33.718;73.040;2022-12-18T01:05:41;95106.19;;;9.26;62.18
73332;BME280;61560;33.718;73.040;2022-12-18T01:08:08;95109.31;;;9.28;63.08
73332;BME280;61560;33.718;73.040;2022-12-18T01:10:36;95112.44;;;9.26;62.70
73332;BME280;61560;33.718;73.040;2022-12-18T01:13:08;95122.59;;;9.29;63.12
73332;BME280;61560;33.718;73.040;2022-12-18T01:15:37;95118.28;;;9.25;62.62
73332;BME280;61560;33.718;73.040;2022-12-18T01:18:07;95117.13;;;9.22;63.07
73332;BME280;61560;33.718;73.040;2022-12-18T01:20:37;95124.53;;;9.22;63.20
73332;BME280;61560;33.718;73.040;2022-12-18T01:23:05;95135.88;;;9.20;62.70
73332;BME280;61560;33.718;73.040;2022-12-18T01:25:35;95131.19;;;9.21;62.78
73332;BME280;61560;33.718;73.040;2022-12-18T01:28:04;95133.16;;;9.17;62.96
73332;BME280;61560;33.718;73.040;2022-12-18T01:30:31;95134.34;;;9.19;63.42
73332;BME280;61560;33.718;73.040;2022-12-18T01:33:00;95136.69;;;9.17;62.90
73332;BME280;61560;33.718;73.040;2022-12-18T01:35:26;95144.84;;;9.21;63.13
73332;BME280;61560;33.718;73.040;2022-12-18T01:37:56;95149.53;;;9.24;63.32
73332;BME280;61560;33.718;73.040;2022-12-18T01:40:23;95148.38;;;9.21;63.87
73332;BME280;61560;33.718;73.040;2022-12-18T01:42:52;95146.81;;;9.17;63.48
73332;BME280;61560;33.718;73.040;2022-12-18T01:48:03;95162.84;;;9.15;64.02
73332;BME280;61560;33.718;73.040;2022-12-18T01:50:36;95156.59;;;9.11;63.93
73332;BME280;61560;33.718;73.040;2022-12-18T01:55:51;95177.69;;;9.06;64.40
73332;BME280;61560;33.718;73.040;2022-12-18T01:58:27;95179.25;;;9.04;64.18
73332;BME280;61560;33.718;73.040;2022-12-18T02:00:58;95182.38;;;9.02;64.30
73332;BME280;61560;33.718;73.040;2022-12-18T02:03:25;95181.63;;;8.98;64.32
73332;BME280;61560;33.718;73.040;2022-12-18T02:06:16;95193.72;;;8.94;64.55
73332;BME280;61560;33.718;73.040;2022-12-18T02:09:35;95201.50;;;8.95;64.62
73332;BME280;61560;33.718;73.040;2022-12-18T02:11:59;95196.84;;;8.96;64.84
73332;BME280;61560;33.718;73.040;2022-12-18T02:14:39;95206.97;;;8.99;65.17
73332;BME280;61560;33.718;73.040;2022-12-18T02:17:09;95214.78;;;9.00;64.99
73332;BME280;61560;33.718;73.040;2022-12-18T02:22:47;95214.00;;;9.00;65.80
73332;BME280;61560;33.718;73.040;2022-12-18T02:25:40;95218.28;;;9.04;65.08
73332;BME280;61560;33.718;73.040;2022-12-18T02:28:15;95223.72;;;9.12;64.79
73332;BME280;61560;33.718;73.040;2022-12-18T02:30:46;95213.19;;;9.14;64.94
73332;BME280;61560;33.718;73.040;2022-12-18T02:33:14;95216.28;;;9.16;65.25
73332;BME280;61560;33.718;73.040;2022-12-18T02:35:44;95224.06;;;9.35;65.57
73332;BME280;61560;33.718;73.040;2022-12-18T02:38:13;95216.50;;;9.77;63.84
73332;BME280;61560;33.718;73.040;2022-12-18T02:40:44;95213.91;;;10.32;62.17
73332;BME280;61560;33.718;73.040;2022-12-18T02:43:16;95218.16;;;10.92;60.60
73332;BME280;61560;33.718;73.040;2022-12-18T02:45:48;95210.94;;;11.45;58.34
73332;BME280;61560;33.718;73.040;2022-12-18T02:48:15;95210.66;;;12.04;56.53
73332;BME280;61560;33.718;73.040;2022-12-18T02:51:03;95198.50;;;12.58;54.80
73332;BME280;61560;33.718;73.040;2022-12-18T02:53:53;95200.78;;;13.13;53.54
73332;BME280;61560;33.718;73.040;2022-12-18T02:56:28;95193.44;;;13.49;52.51
73332;BME280;61560;33.718;73.040;2022-12-18T02:59:08;95193.94;;;13.64;51.52
73332;BME280;61560;33.718;73.040;2022-12-18T03:01:49;95203.53;;;13.56;52.07
73332;BME280;61560;33.718;73.040;2022-12-18T03:04:35;95194.41;;;13.39;52.38
73332;BME280;61560;33.718;73.040;2022-12-18T03:07:10;95201.50;;;13.17;53.09
73332;BME280;61560;33.718;73.040;2022-12-18T03:09:43;95207.63;;;13.01;53.45
73332;BME280;61560;33.718;73.040;2022-12-18T03:15:19;95214.44;;;12.93;53.63
73332;BME280;61560;33.718;73.040;2022-12-18T03:17:55;95205.97;;;13.07;53.60
73332;BME280;61560;33.718;73.040;2022-12-18T03:20:32;95216.63;;;13.29;53.16
73332;BME280;61560;33.718;73.040;2022-12-18T03:23:06;95202.25;;;13.41;52.35
73332;BME280;61560;33.718;73.040;2022-12-18T03:25:38;95213.59;;;13.43;51.99
73332;BME280;61560;33.718;73.040;2022-12-18T03:28:19;95216.44;;;13.39;53.16
73332;BME280;61560;33.718;73.040;2022-12-18T03:30:52;95232.28;;;13.32;53.21
73332;BME280;61560;33.718;73.040;2022-12-18T03:33:37;95222.41;;;13.34;53.33
73332;BME280;61560;33.718;73.040;2022-12-18T03:36:06;95223.44;;;13.44;53.53
73332;BME280;61560;33.718;73.040;2022-12-18T03:38:33;95224.91;;;13.48;53.58
73332;BME280;61560;33.718;73.040;2022-12-18T03:49:33;95241.97;;;13.40;54.04
73332;BME280;61560;33.718;73.040;2022-12-18T03:52:11;95249.88;;;13.38;52.39
73332;BME280;61560;33.718;73.040;2022-12-18T03:54:41;95258.06;;;13.41;52.15
73332;BME280;61560;33.718;73.040;2022-12-18T03:57:32;95258.31;;;13.50;52.75
73332;BME280;61560;33.718;73.040;2022-12-18T04:00:12;95262.59;;;13.51;53.33
73332;BME280;61560;33.718;73.040;2022-12-18T04:03:04;95261.63;;;13.61;52.60
73332;BME280;61560;33.718;73.040;2022-12-18T04:05:41;95256.00;;;13.68;52.62
73332;BME280;61560;33.718;73.040;2022-12-18T04:08:09;95264.09;;;13.75;51.99
73332;BME280;61560;33.718;73.040;2022-12-18T04:10:39;95266.66;;;13.86;52.43
73332;BME280;61560;33.718;73.040;2022-12-18T04:13:09;95263.81;;;13.89;52.29
73332;BME280;61560;33.718;73.040;2022-12-18T04:15:36;95276.41;;;13.90;51.60
73332;BME280;61560;33.718;73.040;2022-12-18T04:18:08;95281.72;;;14.01;52.08
73332;BME280;61560;33.718;73.040;2022-12-18T04:20:41;95280.81;;;14.08;50.70
73332;BME280;61560;33.718;73.040;2022-12-18T04:23:08;95276.72;;;14.16;50.82
73332;BME280;61560;33.718;73.040;2022-12-18T04:25:34;95281.66;;;14.24;50.36
73332;BME280;61560;33.718;73.040;2022-12-18T04:28:08;95279.56;;;14.32;51.22
73332;BME280;61560;33.718;73.040;2022-12-18T04:30:38;95288.44;;;14.39;51.41
73332;BME280;61560;33.718;73.040;2022-12-18T04:33:09;95285.19;;;14.44;50.74
73332;BME280;61560;33.718;73.040;2022-12-18T04:35:37;95292.19;;;14.49;50.32
73332;BME280;61560;33.718;73.040;2022-12-18T04:38:05;95292.88;;;14.53;50.77
73332;BME280;61560;33.718;73.040;2022-12-18T04:40:37;95291.19;;;14.59;50.07
73332;BME280;61560;33.718;73.040;2022-12-18T04:43:10;95298.16;;;14.63;50.41
73332;BME280;61560;33.718;73.040;2022-12-18T04:45:38;95298.50;;;14.65;49.73
73332;BME280;61560;33.718;73.040;2022-12-18T04:48:04;95289.31;;;14.72;49.08
73332;BME280;61560;33.718;73.040;2022-12-18T04:50:31;95297.09;;;14.77;48.77
73332;BME280;61560;33.718;73.040;2022-12-18T04:52:58;95295.81;;;14.82;48.45
73332;BME280;61560;33.718;73.040;2022-12-18T04:55:25;95294.94;;;14.85;47.81
73332;BME280;61560;33.718;73.040;2022-12-18T04:57:51;95297.19;;;14.90;49.09
73332;BME280;61560;33.718;73.040;2022-12-18T05:00:18;95297.88;;;14.94;47.78
73332;BME280;61560;33.718;73.040;2022-12-18T05:02:45;95297.03;;;14.97;47.99
73332;BME280;61560;33.718;73.040;2022-12-18T05:05:12;95298.41;;;15.05;47.35
73332;BME280;61560;33.718;73.040;2022-12-18T05:07:38;95302.63;;;15.09;46.71
73332;BME280;61560;33.718;73.040;2022-12-18T05:10:09;95307.56;;;15.18;46.23
73332;BME280;61560;33.718;73.040;2022-12-18T05:12:35;95308.59;;;15.24;46.62
73332;BME280;61560;33.718;73.040;2022-12-18T05:15:22;95300.66;;;15.26;46.93
73332;BME280;61560;33.718;73.040;2022-12-18T05:17:48;95305.25;;;15.32;46.14
73332;BME280;61560;33.718;73.040;2022-12-18T05:20:15;95300.75;;;15.38;45.99
73332;BME280;61560;33.718;73.040;2022-12-18T05:22:41;95307.78;;;15.43;45.02
73332;BME280;61560;33.718;73.040;2022-12-18T05:25:08;95304.25;;;15.42;44.38
73332;BME280;61560;33.718;73.040;2022-12-18T05:27:35;95304.09;;;15.49;44.66
73332;BME280;61560;33.718;73.040;2022-12-18T05:30:02;95300.00;;;15.54;44.70
73332;BME280;61560;33.718;73.040;2022-12-18T05:32:28;95303.03;;;15.60;44.55
73332;BME280;61560;33.718;73.040;2022-12-18T05:34:55;95305.69;;;15.63;44.10
73332;BME280;61560;33.718;73.040;2022-12-18T05:37:24;95304.31;;;15.71;44.09
73332;BME280;61560;33.718;73.040;2022-12-18T05:39:50;95299.91;;;15.74;43.90
73332;BME280;61560;33.718;73.040;2022-12-18T05:42:17;95304.53;;;15.77;44.41
73332;BME280;61560;33.718;73.040;2022-12-18T05:44:44;95303.25;;;15.81;44.08
73332;BME280;61560;33.718;73.040;2022-12-18T05:47:10;95305.06;;;15.88;44.03
73332;BME280;61560;33.718;73.040;2022-12-18T05:49:37;95287.94;;;15.93;44.10
73332;BME280;61560;33.718;73.040;2022-12-18T05:52:04;95286.97;;;15.99;43.98
73332;BME280;61560;33.718;73.040;2022-12-18T05:54:31;95296.22;;;16.09;43.99
73332;BME280;61560;33.718;73.040;2022-12-18T05:56:58;95277.94;;;16.11;43.83
73332;BME280;61560;33.718;73.040;2022-12-18T05:59:26;95277.00;;;16.18;43.44
73332;BME280;61560;33.718;73.040;2022-12-18T06:01:52;95279.22;;;16.23;43.73
73332;BME280;61560;33.718;73.040;2022-12-18T06:04:20;95276.69;;;16.28;43.63
73332;BME280;61560;33.718;73.040;2022-12-18T06:06:46;95271.06;;;16.32;43.61
73332;BME280;61560;33.718;73.040;2022-12-18T06:09:13;95267.75;;;16.37;43.35
73332;BME280;61560;33.718;73.040;2022-12-18T06:11:39;95267.13;;;16.46;43.37
73332;BME280;61560;33.718;73.040;2022-12-18T06:14:06;95267.25;;;16.55;43.35
73332;BME280;61560;33.718;73.040;2022-12-18T06:16:33;95265.50;;;16.61;42.95
73332;BME280;61560;33.718;73.040;2022-12-18T06:19:02;95257.97;;;16.61;41.97
73332;BME280;61560;33.718;73.040;2022-12-18T06:21:30;95254.44;;;16.61;41.47
73332;BME280;61560;33.718;73.040;2022-12-18T06:23:57;95250.69;;;16.67;40.55
73332;BME280;61560;33.718;73.040;2022-12-18T06:26:24;95243.50;;;16.70;40.27
73332;BME280;61560;33.718;73.040;2022-12-18T06:28:53;95244.06;;;16.77;40.45
73332;BME280;61560;33.718;73.040;2022-12-18T06:31:20;95238.19;;;16.88;40.52
73332;BME280;61560;33.718;73.040;2022-12-18T06:33:46;95232.44;;;16.95;40.55
73332;BME280;61560;33.718;73.040;2022-12-18T06:36:13;95234.56;;;17.03;40.17
73332;BME280;61560;33.718;73.040;2022-12-18T06:38:42;95232.44;;;17.07;39.67
73332;BME280;61560;33.718;73.040;2022-12-18T06:41:15;95229.09;;;17.12;39.11
73332;BME280;61560;33.718;73.040;2022-12-18T06:43:42;95224.56;;;17.18;39.01
73332;BME280;61560;33.718;73.040;2022-12-18T06:46:10;95211.03;;;17.20;39.08
73332;BME280;61560;33.718;73.040;2022-12-18T06:48:37;95208.16;;;17.24;39.02
73332;BME280;61560;33.718;73.040;2022-12-18T06:51:06;95201.19;;;17.32;39.44
73332;BME280;61560;33.718;73.040;2022-12-18T06:53:33;95202.50;;;17.40;39.61
73332;BME280;61560;33.718;73.040;2022-12-18T06:56:02;95198.81;;;17.43;39.85
73332;BME280;61560;33.718;73.040;2022-12-18T06:58:29;95188.38;;;17.47;40.19
73332;BME280;61560;33.718;73.040;2022-12-18T07:01:06;95190.94;;;17.54;40.29
73332;BME280;61560;33.718;73.040;2022-12-18T07:03:33;95194.25;;;17.62;40.31
73332;BME280;61560;33.718;73.040;2022-12-18T07:06:00;95177.47;;;17.65;40.59
73332;BME280;61560;33.718;73.040;2022-12-18T07:08:31;95183.25;;;17.71;40.64
73332;BME280;61560;33.718;73.040;2022-12-18T07:11:03;95181.13;;;17.75;40.49
73332;BME280;61560;33.718;73.040;2022-12-18T07:13:31;95169.59;;;17.76;41.03
73332;BME280;61560;33.718;73.040;2022-12-18T07:16:10;95167.59;;;17.77;40.87
73332;BME280;61560;33.718;73.040;2022-12-18T07:18:42;95167.69;;;17.73;41.19
73332;BME280;61560;33.718;73.040;2022-12-18T07:21:13;95155.28;;;17.78;41.16
73332;BME280;61560;33.718;73.040;2022-12-18T07:23:40;95151.75;;;17.77;41.37
73332;BME280;61560;33.718;73.040;2022-12-18T07:26:11;95154.72;;;17.83;40.81
73332;BME280;61560;33.718;73.040;2022-12-18T07:28:41;95145.16;;;17.84;40.90
73332;BME280;61560;33.718;73.040;2022-12-18T07:31:19;95149.16;;;17.83;41.21
73332;BME280;61560;33.718;73.040;2022-12-18T07:33:46;95136.59;;;17.91;40.97
73332;BME280;61560;33.718;73.040;2022-12-18T07:36:14;95136.31;;;17.98;40.96
73332;BME280;61560;33.718;73.040;2022-12-18T07:38:42;95133.88;;;18.00;40.74
73332;BME280;61560;33.718;73.040;2022-12-18T07:41:11;95131.94;;;18.10;40.47
73332;BME280;61560;33.718;73.040;2022-12-18T07:43:38;95127.50;;;18.12;39.98
73332;BME280;61560;33.718;73.040;2022-12-18T07:46:06;95126.72;;;18.12;38.49
73332;BME280;61560;33.718;73.040;2022-12-18T07:48:32;95127.50;;;18.12;37.76
73332;BME280;61560;33.718;73.040;2022-12-18T07:51:00;95119.81;;;18.16;35.25
73332;BME280;61560;33.718;73.040;2022-12-18T07:53:27;95119.03;;;18.16;34.47
73332;BME280;61560;33.718;73.040;2022-12-18T07:55:58;95113.66;;;18.21;34.51
73332;BME280;61560;33.718;73.040;2022-12-18T07:58:25;95105.50;;;18.27;34.35
73332;BME280;61560;33.718;73.040;2022-12-18T08:00:52;95107.53;;;18.26;34.64
73332;BME280;61560;33.718;73.040;2022-12-18T08:03:20;95098.75;;;18.28;34.43
73332;BME280;61560;33.718;73.040;2022-12-18T08:05:49;95099.97;;;18.27;34.62
73332;BME280;61560;33.718;73.040;2022-12-18T08:08:16;95086.56;;;18.25;34.10
73332;BME280;61560;33.718;73.040;2022-12-18T08:10:43;95096.63;;;18.32;34.04
73332;BME280;61560;33.718;73.040;2022-12-18T08:13:09;95090.75;;;18.30;34.28
73332;BME280;61560;33.718;73.040;2022-12-18T08:15:36;95084.00;;;18.31;33.58
73332;BME280;61560;33.718;73.040;2022-12-18T08:18:03;95089.38;;;18.34;34.24
73332;BME280;61560;33.718;73.040;2022-12-18T08:20:30;95085.84;;;18.34;34.75
73332;BME280;61560;33.718;73.040;2022-12-18T08:22:56;95077.84;;;18.36;34.56
73332;BME280;61560;33.718;73.040;2022-12-18T08:25:24;95076.94;;;18.39;34.11
73332;BME280;61560;33.718;73.040;2022-12-18T08:27:50;95076.94;;;18.39;34.69
73332;BME280;61560;33.718;73.040;2022-12-18T08:30:17;95073.22;;;18.42;34.67
73332;BME280;61560;33.718;73.040;2022-12-18T08:32:43;95078.34;;;18.43;35.38
73332;BME280;61560;33.718;73.040;2022-12-18T08:35:10;95077.44;;;18.46;35.70
73332;BME280;61560;33.718;73.040;2022-12-18T08:37:38;95078.22;;;18.47;35.44
73332;BME280;61560;33.718;73.040;2022-12-18T08:40:07;95075.13;;;18.45;35.62
73332;BME280;61560;33.718;73.040;2022-12-18T08:42:36;95066.47;;;18.43;36.09
73332;BME280;61560;33.718;73.040;2022-12-18T08:45:21;95059.72;;;18.44;36.61
73332;BME280;61560;33.718;73.040;2022-12-18T08:47:47;95060.66;;;18.50;36.37
73332;BME280;61560;33.718;73.040;2022-12-18T08:50:14;95062.97;;;18.51;36.55
73332;BME280;61560;33.718;73.040;2022-12-18T08:52:40;95059.88;;;18.49;36.53
73332;BME280;61560;33.718;73.040;2022-12-18T08:55:09;95048.94;;;18.46;36.68
73332;BME280;61560;33.718;73.040;2022-12-18T08:57:36;95043.38;;;18.46;36.68
73332;BME280;61560;33.718;73.040;2022-12-18T09:00:04;95038.00;;;18.51;36.64
73332;BME280;61560;33.718;73.040;2022-12-18T09:02:30;95033.53;;;18.54;37.89
73332;BME280;61560;33.718;73.040;2022-12-18T09:04:57;95031.53;;;18.54;37.82
73332;BME280;61560;33.718;73.040;2022-12-18T09:07:23;95032.63;;;18.57;36.79
73332;BME280;61560;33.718;73.040;2022-12-18T09:09:50;95041.41;;;18.55;36.76
73332;BME280;61560;33.718;73.040;2022-12-18T09:12:16;95037.09;;;18.54;36.75
73332;BME280;61560;33.718;73.040;2022-12-18T09:14:43;95024.00;;;18.55;36.24
73332;BME280;61560;33.718;73.040;2022-12-18T09:17:09;95023.38;;;18.51;36.41
73332;BME280;61560;33.718;73.040;2022-12-18T09:19:36;95018.13;;;18.53;36.87
73332;BME280;61560;33.718;73.040;2022-12-18T09:22:02;95017.50;;;18.49;37.21
73332;BME280;61560;33.718;73.040;2022-12-18T09:24:32;95022.59;;;18.50;36.82
73332;BME280;61560;33.718;73.040;2022-12-18T09:26:58;95014.13;;;18.45;36.91
73332;BME280;61560;33.718;73.040;2022-12-18T09:29:28;95015.97;;;18.48;36.59
73332;BME280;61560;33.718;73.040;2022-12-18T09:31:54;95012.88;;;18.46;36.62
73332;BME280;61560;33.718;73.040;2022-12-18T09:34:26;95011.78;;;18.43;36.77
73332;BME280;61560;33.718;73.040;2022-12-18T09:36:53;95010.56;;;18.44;36.83
73332;BME280;61560;33.718;73.040;2022-12-18T09:39:20;95011.00;;;18.43;37.35
73332;BME280;61560;33.718;73.040;2022-12-18T09:41:50;95011.13;;;18.39;37.30
73332;BME280;61560;33.718;73.040;2022-12-18T09:44:29;95004.50;;;18.37;37.26
73332;BME280;61560;33.718;73.040;2022-12-18T09:47:23;95004.94;;;18.35;36.92
73332;BME280;61560;33.718;73.040;2022-12-18T09:50:04;95000.66;;;18.34;36.67
73332;BME280;61560;33.718;73.040;2022-12-18T09:52:45;95003.41;;;18.34;36.81
73332;BME280;61560;33.718;73.040;2022-12-18T09:55:41;95002.78;;;18.30;36.45
73332;BME280;61560;33.718;73.040;2022-12-18T10:00:36;95002.78;;;18.30;36.54
73332;BME280;61560;33.718;73.040;2022-12-18T10:03:09;94998.47;;;18.29;36.53
73332;BME280;61560;33.718;73.040;2022-12-18T10:06:02;95003.38;;;18.25;36.46
73332;BME280;61560;33.718;73.040;2022-12-18T10:08:49;94998.47;;;18.20;36.66
73332;BME280;61560;33.718;73.040;2022-12-18T10:14:27;94992.59;;;18.18;36.38
73332;BME280;61560;33.718;73.040;2022-12-18T10:19:58;94986.84;;;18.13;37.04
73332;BME280;61560;33.718;73.040;2022-12-18T10:27:57;94983.28;;;18.03;37.01
73332;BME280;61560;33.718;73.040;2022-12-18T10:30:25;94982.19;;;18.00;36.81
73332;BME280;61560;33.718;73.040;2022-12-18T10:32:52;94974.03;;;17.97;36.58
73332;BME280;61560;33.718;73.040;2022-12-18T10:35:25;94974.50;;;17.95;36.60
73332;BME280;61560;33.718;73.040;2022-12-18T10:38:01;94972.94;;;17.94;36.47
73332;BME280;61560;33.718;73.040;2022-12-18T10:40:29;94971.09;;;17.91;36.40
73332;BME280;61560;33.718;73.040;2022-12-18T10:43:13;94976.75;;;17.88;36.76
73332;BME280;61560;33.718;73.040;2022-12-18T10:48:47;94977.94;;;17.78;37.13
73332;BME280;61560;33.718;73.040;2022-12-18T10:51:28;94977.31;;;17.74;37.73
73332;BME280;61560;33.718;73.040;2022-12-18T10:53:59;94974.38;;;17.68;37.86
73332;BME280;61560;33.718;73.040;2022-12-18T10:56:28;94975.28;;;17.65;38.39
73332;BME280;61560;33.718;73.040;2022-12-18T10:59:04;94968.94;;;17.56;39.16
73332;BME280;61560;33.718;73.040;2022-12-18T11:01:56;94969.84;;;17.53;39.14
73332;BME280;61560;33.718;73.040;2022-12-18T11:04:31;94970.06;;;17.46;39.32
73332;BME280;61560;33.718;73.040;2022-12-18T11:07:06;94964.03;;;17.38;39.65
73332;BME280;61560;33.718;73.040;2022-12-18T11:09:38;94967.84;;;17.32;39.73
73332;BME280;61560;33.718;73.040;2022-12-18T11:12:16;94969.75;;;17.22;40.82
73332;BME280;61560;33.718;73.040;2022-12-18T11:14:51;94968.47;;;17.14;41.25
73332;BME280;61560;33.718;73.040;2022-12-18T11:17:36;94958.25;;;17.02;42.29
73332;BME280;61560;33.718;73.040;2022-12-18T11:22:56;94959.88;;;16.90;43.65
73332;BME280;61560;33.718;73.040;2022-12-18T11:25:24;94962.44;;;16.85;44.35
73332;BME280;61560;33.718;73.040;2022-12-18T11:27:53;94958.81;;;16.75;45.13
73332;BME280;61560;33.718;73.040;2022-12-18T11:30:29;94961.38;;;16.70;45.95
73332;BME280;61560;33.718;73.040;2022-12-18T11:33:03;94955.78;;;16.61;46.60
73332;BME280;61560;33.718;73.040;2022-12-18T11:35:35;94960.78;;;16.53;47.11
73332;BME280;61560;33.718;73.040;2022-12-18T11:38:24;94961.09;;;16.42;48.17
73332;BME280;61560;33.718;73.040;2022-12-18T11:41:24;94958.28;;;16.33;48.88
73332;BME280;61560;33.718;73.040;2022-12-18T11:45:00;94957.53;;;16.20;49.76
73332;BME280;61560;33.718;73.040;2022-12-18T11:50:58;94959.44;;;15.98;51.23
73332;BME280;61560;33.718;73.040;2022-12-18T11:53:28;94961.63;;;15.91;51.82
73332;BME280;61560;33.718;73.040;2022-12-18T11:59:15;94962.66;;;15.72;52.90
73332;BME280;61560;33.718;73.040;2022-12-18T12:13:33;94969.41;;;15.29;54.55
73332;BME280;61560;33.718;73.040;2022-12-18T12:21:42;94972.38;;;15.10;54.83
73332;BME280;61560;33.718;73.040;2022-12-18T12:24:16;94974.13;;;15.04;55.03
73332;BME280;61560;33.718;73.040;2022-12-18T12:35:42;94974.03;;;14.78;55.71
73332;BME280;61560;33.718;73.040;2022-12-18T12:38:45;94973.03;;;14.72;55.94
73332;BME280;61560;33.718;73.040;2022-12-18T12:41:19;94977.97;;;14.65;55.31
73332;BME280;61560;33.718;73.040;2022-12-18T12:44:16;94973.75;;;14.60;55.62
73332;BME280;61560;33.718;73.040;2022-12-18T12:46:48;94969.19;;;14.54;55.65
73332;BME280;61560;33.718;73.040;2022-12-18T12:49:18;94972.38;;;14.52;55.33
73332;BME280;61560;33.718;73.040;2022-12-18T12:52:10;94974.47;;;14.48;55.33
73332;BME280;61560;33.718;73.040;2022-12-18T12:54:39;94972.16;;;14.47;55.45
73332;BME280;61560;33.718;73.040;2022-12-18T12:57:16;94972.22;;;14.43;54.78
73332;BME280;61560;33.718;73.040;2022-12-18T13:00:10;94968.34;;;14.41;54.94
73332;BME280;61560;33.718;73.040;2022-12-18T13:05:48;94963.47;;;14.32;55.07
73332;BME280;61560;33.718;73.040;2022-12-18T13:08:30;94963.94;;;14.27;55.01
73332;BME280;61560;33.718;73.040;2022-12-18T13:10:59;94968.34;;;14.25;54.78
73332;BME280;61560;33.718;73.040;2022-12-18T13:13:54;94977.72;;;14.27;54.36
73332;BME280;61560;33.718;73.040;2022-12-18T13:16:25;94966.13;;;14.20;54.25
73332;BME280;61560;33.718;73.040;2022-12-18T13:18:58;94974.28;;;14.23;54.30
73332;BME280;61560;33.718;73.040;2022-12-18T13:21:35;94976.69;;;14.21;54.40
73332;BME280;61560;33.718;73.040;2022-12-18T13:24:31;94982.22;;;14.21;54.18
73332;BME280;61560;33.718;73.040;2022-12-18T13:27:00;94982.72;;;14.16;54.23
73332;BME280;61560;33.718;73.040;2022-12-18T13:29:45;94985.06;;;14.18;54.21
73332;BME280;61560;33.718;73.040;2022-12-18T13:32:24;94981.97;;;14.16;55.51
73332;BME280;61560;33.718;73.040;2022-12-18T13:37:51;94987.31;;;14.84;63.75
73332;BME280;61560;33.718;73.040;2022-12-18T13:45:47;94983.94;;;15.05;58.13
73332;BME280;61560;33.718;73.040;2022-12-18T13:48:23;94994.28;;;15.01;57.09
73332;BME280;61560;33.718;73.040;2022-12-18T13:51:10;94985.34;;;14.97;56.41
73332;BME280;61560;33.718;73.040;2022-12-18T13:53:43;94992.94;;;14.93;55.40
73332;BME280;61560;33.718;73.040;2022-12-18T13:56:32;94996.53;;;14.77;54.17
73332;BME280;61560;33.718;73.040;2022-12-18T14:01:58;94989.78;;;14.49;53.13
73332;BME280;61560;33.718;73.040;2022-12-18T14:04:32;94999.09;;;14.39;53.22
73332;BME280;61560;33.718;73.040;2022-12-18T14:07:10;94997.38;;;14.29;53.19
73332;BME280;61560;33.718;73.040;2022-12-18T14:09:59;95010.53;;;14.22;52.92
73332;BME280;61560;33.718;73.040;2022-12-18T14:12:32;95001.31;;;14.12;53.16
73332;BME280;61560;33.718;73.040;2022-12-18T14:15:27;95008.97;;;14.05;53.00
73332;BME280;61560;33.718;73.040;2022-12-18T14:18:03;95007.16;;;13.98;53.81
73332;BME280;61560;33.718;73.040;2022-12-18T14:20:35;94997.88;;;13.92;53.35
73332;BME280;61560;33.718;73.040;2022-12-18T14:23:03;95003.97;;;13.83;53.36
73332;BME280;61560;33.718;73.040;2022-12-18T14:25:32;95013.09;;;13.80;53.94
73332;BME280;61560;33.718;73.040;2022-12-18T14:28:12;95014.47;;;13.72;54.39
73332;BME280;61560;33.718;73.040;2022-12-18T14:30:41;95011.47;;;13.67;54.42
73332;BME280;61560;33.718;73.040;2022-12-18T14:33:16;95013.50;;;13.63;54.62
73332;BME280;61560;33.718;73.040;2022-12-18T14:36:01;95025.44;;;13.56;54.27
73332;BME280;61560;33.718;73.040;2022-12-18T14:38:34;95021.66;;;13.50;54.43
73332;BME280;61560;33.718;73.040;2022-12-18T14:43:43;95017.88;;;13.25;54.77
73332;BME280;61560;33.718;73.040;2022-12-18T14:49:04;95024.00;;;13.12;55.74
73332;BME280;61560;33.718;73.040;2022-12-18T14:51:35;95017.16;;;13.01;55.91